Hlavní strana
METAR-TAF:

METAR-TAF

Letiště :

Tarvisio, Itálie

zeměpisná šířka: 46-30N, zeměpisná délka: 013-35E, výška: 777 m

Aktuální stav počasí

Zpráva byla vytvořena před 20 hodinami a 32 minutami, v 14:55 UTC
Východní vítr 3 kt
Teplota 0°C
Vlhkost vzduchu 80%
Tlak 1007 hPa
Viditelnost: 7000 m
Zataženo ve výšce 1000 ft
slabé sněžení

METAR: LIVO 201455Z 10003KT 7000 -SN OVC010 00/M03 Q1007 RMK OVC VIS MIN 7000

Čas: 12:27 (11:27 UTC)


TAF: chybějící

Stav a předpovědi počasí z více než 4 000 letišť (zprávy METAR a TAF).

Červené a žluté tečky na mapě představují dostupné meteorologické stanice.

Když kurzor umístíte na tečku, zobrazí se název stanice.

Pak kliknutím zobrazíte stav a předpověď počasí.

Chcete-li změnit mapu, kliknutím na zelené tlačítko se znaménkem +mapu přiblížíte, kliknutím na zelené tlačítko se znaménkem – mapu oddálíte a kliknutím na zelené šipky přejdete na sousední mapy.


METAR-TAF: